createdAt,value
2023-03-27T00:00:36.635Z,8.30
2023-03-27T00:03:41.032Z,8.40
2023-03-27T00:06:45.378Z,8.40
2023-03-27T00:09:49.639Z,8.40
2023-03-27T00:12:52.504Z,8.30
2023-03-27T00:15:56.015Z,8.40
2023-03-27T00:18:59.009Z,8.30
2023-03-27T00:22:01.990Z,8.20
2023-03-27T00:25:06.790Z,8.30
2023-03-27T00:28:09.748Z,8.20
2023-03-27T00:31:13.865Z,8.30
2023-03-27T00:34:16.882Z,8.20
2023-03-27T00:37:19.767Z,8.20
2023-03-27T00:40:24.301Z,8.20
2023-03-27T00:43:29.880Z,8.20
2023-03-27T00:46:39.549Z,8.20
2023-03-27T00:49:42.607Z,8.20
2023-03-27T00:52:49.040Z,8.20
2023-03-27T00:55:56.364Z,8.20
2023-03-27T00:59:03.064Z,8.20
2023-03-27T01:02:07.306Z,8.20
2023-03-27T01:05:12.221Z,8.30
2023-03-27T01:08:16.595Z,8.30
2023-03-27T01:11:33.470Z,8.20
2023-03-27T01:14:42.460Z,8.20
2023-03-27T01:17:57.296Z,8.40
2023-03-27T01:21:43.274Z,8.30
2023-03-27T01:25:18.801Z,8.20
2023-03-27T01:28:36.925Z,8.20
2023-03-27T01:31:53.709Z,8.20
2023-03-27T01:35:24.532Z,8.20
2023-03-27T01:38:56.888Z,8.20
2023-03-27T01:42:08.202Z,8.20
2023-03-27T01:45:18.667Z,8.10
2023-03-27T01:48:29.381Z,8.00
2023-03-27T01:51:37.389Z,7.80
2023-03-27T01:54:43.440Z,7.70
2023-03-27T01:57:53.041Z,7.70
2023-03-27T02:01:00.557Z,7.80
2023-03-27T02:04:07.578Z,7.60
2023-03-27T02:07:13.977Z,7.80
2023-03-27T02:10:22.307Z,7.70
2023-03-27T02:13:30.511Z,7.70
2023-03-27T02:16:37.833Z,7.60
2023-03-27T02:19:47.607Z,7.60
2023-03-27T02:22:50.897Z,7.70
2023-03-27T02:25:55.169Z,7.70
2023-03-27T02:29:18.300Z,7.70
2023-03-27T02:32:35.028Z,7.70
2023-03-27T02:35:47.050Z,7.60
2023-03-27T02:38:53.861Z,7.40
2023-03-27T02:42:03.195Z,7.40
2023-03-27T02:45:17.418Z,7.20
2023-03-27T02:48:27.216Z,7.30
2023-03-27T02:51:33.307Z,7.50
2023-03-27T02:54:41.049Z,7.60
2023-03-27T02:57:52.210Z,7.60
2023-03-27T03:00:59.381Z,7.50
2023-03-27T03:04:07.975Z,7.40
2023-03-27T03:07:11.645Z,7.50
2023-03-27T03:10:15.100Z,7.60
2023-03-27T03:13:19.046Z,7.70
2023-03-27T03:16:24.075Z,7.60
2023-03-27T03:19:27.167Z,7.50
2023-03-27T03:22:30.283Z,7.50
2023-03-27T03:25:33.642Z,7.50
2023-03-27T03:28:36.495Z,7.60
2023-03-27T03:31:46.463Z,7.60
2023-03-27T03:34:49.723Z,7.60
2023-03-27T03:37:53.729Z,7.40
2023-03-27T03:40:58.355Z,7.50
2023-03-27T03:44:01.466Z,7.50
2023-03-27T03:47:06.224Z,7.50
2023-03-27T03:50:09.790Z,7.30
2023-03-27T03:53:12.953Z,7.20
2023-03-27T03:56:16.075Z,7.00
2023-03-27T03:59:18.925Z,7.00
2023-03-27T04:02:29.261Z,7.20
2023-03-27T04:05:32.891Z,7.40
2023-03-27T04:08:36.690Z,7.20
2023-03-27T04:11:39.556Z,7.20
2023-03-27T04:14:42.425Z,7.20
2023-03-27T04:17:48.877Z,7.20
2023-03-27T04:20:54.430Z,7.30
2023-03-27T04:24:02.323Z,7.20
2023-03-27T04:27:06.636Z,7.30
2023-03-27T04:30:10.630Z,7.40
2023-03-27T04:33:18.362Z,7.40
2023-03-27T04:36:21.482Z,7.20
2023-03-27T04:39:24.767Z,7.20
2023-03-27T04:42:27.613Z,7.20
2023-03-27T04:45:32.294Z,7.10
2023-03-27T04:48:38.368Z,7.00
2023-03-27T04:51:42.001Z,7.10
2023-03-27T04:54:45.220Z,7.20
2023-03-27T04:57:48.562Z,7.10
2023-03-27T05:00:51.497Z,6.90
2023-03-27T05:03:56.369Z,6.80
2023-03-27T05:07:00.837Z,7.00
2023-03-27T05:10:03.885Z,7.00
2023-03-27T05:13:06.775Z,6.80
2023-03-27T05:16:11.432Z,6.60
2023-03-27T05:19:15.841Z,6.60
2023-03-27T05:22:18.942Z,6.50
2023-03-27T05:25:22.154Z,6.50
2023-03-27T05:28:25.085Z,6.60
2023-03-27T05:31:29.248Z,6.80
2023-03-27T05:34:34.618Z,6.70
2023-03-27T05:37:38.476Z,6.40
2023-03-27T05:40:41.767Z,6.30
2023-03-27T05:43:45.272Z,6.30
2023-03-27T05:46:48.536Z,6.10
2023-03-27T05:49:52.728Z,6.30
2023-03-27T05:52:56.888Z,6.40
2023-03-27T05:56:03.179Z,6.40
2023-03-27T05:59:06.409Z,6.30
2023-03-27T06:02:10.969Z,6.40
2023-03-27T06:05:15.415Z,6.20
2023-03-27T06:08:18.317Z,5.90
2023-03-27T06:11:21.197Z,6.00
2023-03-27T06:14:24.110Z,6.00
2023-03-27T06:17:27.095Z,6.00
2023-03-27T06:20:31.752Z,6.00
2023-03-27T06:23:34.631Z,6.00
2023-03-27T06:26:37.900Z,6.20
2023-03-27T06:29:41.705Z,6.10
2023-03-27T06:32:46.282Z,6.00
2023-03-27T06:35:52.877Z,5.90
2023-03-27T06:38:56.630Z,5.70
2023-03-27T06:41:59.485Z,6.00
2023-03-27T06:45:02.398Z,5.80
2023-03-27T06:48:16.032Z,5.70
2023-03-27T06:51:26.784Z,5.90
2023-03-27T06:54:29.924Z,5.80
2023-03-27T06:57:32.805Z,5.70
2023-03-27T07:00:39.156Z,5.60
2023-03-27T07:03:42.086Z,5.60
2023-03-27T07:06:48.706Z,5.50
2023-03-27T07:09:51.571Z,5.70
2023-03-27T07:12:55.440Z,5.80
2023-03-27T07:15:58.394Z,5.50
2023-03-27T07:19:02.423Z,5.50
2023-03-27T07:22:06.844Z,5.50
2023-03-27T07:25:12.157Z,5.50
2023-03-27T07:28:16.819Z,5.30
2023-03-27T07:31:33.028Z,5.40
2023-03-27T07:34:39.880Z,5.60
2023-03-27T07:37:44.670Z,5.60
2023-03-27T07:40:47.534Z,5.40
2023-03-27T07:43:50.443Z,5.10
2023-03-27T07:46:53.281Z,5.10
2023-03-27T07:49:56.199Z,5.30
2023-03-27T07:53:00.437Z,5.30
2023-03-27T07:56:03.708Z,5.30
2023-03-27T07:59:06.847Z,5.20
2023-03-27T08:02:11.223Z,5.20
2023-03-27T08:05:14.805Z,5.10
2023-03-27T08:08:19.143Z,5.00
2023-03-27T08:11:30.428Z,5.20
2023-03-27T08:14:34.003Z,5.10
2023-03-27T08:17:37.118Z,5.20
2023-03-27T08:20:40.370Z,5.30
2023-03-27T08:23:44.698Z,5.40
2023-03-27T08:26:47.564Z,5.60
2023-03-27T08:29:50.432Z,5.60
2023-03-27T08:32:53.551Z,5.40
2023-03-27T08:35:57.790Z,5.40
2023-03-27T08:39:02.982Z,5.40
2023-03-27T08:42:08.848Z,5.50
2023-03-27T08:45:20.925Z,5.70
2023-03-27T08:48:31.124Z,5.80
2023-03-27T08:51:38.908Z,5.80
2023-03-27T08:54:45.785Z,5.80
2023-03-27T08:57:51.143Z,5.50
2023-03-27T09:01:02.131Z,5.60
2023-03-27T09:04:14.711Z,5.70
2023-03-27T09:07:24.431Z,5.80
2023-03-27T09:10:36.153Z,5.80
2023-03-27T09:13:44.339Z,5.80
2023-03-27T09:16:50.989Z,5.70
2023-03-27T09:19:57.467Z,5.70
2023-03-27T09:23:10.915Z,5.60
2023-03-27T09:26:19.419Z,5.50
2023-03-27T09:29:26.778Z,5.50
2023-03-27T09:32:33.460Z,5.70
2023-03-27T09:35:38.818Z,5.60
2023-03-27T09:38:46.374Z,5.50
2023-03-27T09:41:53.678Z,5.70
2023-03-27T09:44:59.254Z,5.80
2023-03-27T09:48:04.035Z,5.80
2023-03-27T09:51:27.401Z,5.90
2023-03-27T09:54:32.489Z,5.70
2023-03-27T09:57:38.828Z,5.50
2023-03-27T10:00:42.829Z,5.60
2023-03-27T10:03:51.924Z,5.50
2023-03-27T10:07:01.528Z,5.70
2023-03-27T10:10:11.576Z,5.60
2023-03-27T10:13:18.030Z,5.60
2023-03-27T10:16:22.804Z,5.60
2023-03-27T10:19:30.185Z,5.70
2023-03-27T10:22:37.434Z,5.70
2023-03-27T10:25:46.283Z,5.70
2023-03-27T10:28:52.380Z,6.00
2023-03-27T10:31:57.125Z,5.90
2023-03-27T10:35:00.047Z,6.20
2023-03-27T10:38:04.282Z,6.20
2023-03-27T10:41:12.974Z,6.20
2023-03-27T10:44:21.233Z,6.10
2023-03-27T10:47:26.615Z,6.10
2023-03-27T10:50:33.715Z,6.20
2023-03-27T10:53:44.358Z,6.20
2023-03-27T10:56:58.186Z,6.30
2023-03-27T11:00:10.550Z,6.40
2023-03-27T11:03:20.243Z,6.40
2023-03-27T11:06:28.660Z,6.40
2023-03-27T11:09:35.630Z,6.40
2023-03-27T11:12:39.449Z,6.30
2023-03-27T11:15:47.241Z,6.30
2023-03-27T11:18:53.817Z,6.70
2023-03-27T11:22:03.394Z,6.70
2023-03-27T11:25:15.735Z,6.60
2023-03-27T11:28:24.958Z,6.50
2023-03-27T11:31:39.152Z,6.80
2023-03-27T11:34:48.106Z,7.20
2023-03-27T11:37:54.628Z,7.40
2023-03-27T11:40:58.152Z,7.80
2023-03-27T11:44:01.278Z,8.20
2023-03-27T11:47:20.314Z,8.40
2023-03-27T11:50:43.105Z,8.30
2023-03-27T11:54:03.434Z,8.20
2023-03-27T11:57:13.146Z,7.80
2023-03-27T12:00:30.480Z,7.60
2023-03-27T12:03:59.083Z,7.60
2023-03-27T12:07:12.344Z,7.70
2023-03-27T12:10:28.957Z,7.80
2023-03-27T12:14:02.364Z,7.60
2023-03-27T12:17:21.791Z,7.60
2023-03-27T12:20:53.285Z,7.40
2023-03-27T12:24:20.116Z,7.20
2023-03-27T12:27:37.484Z,7.20
2023-03-27T12:30:53.488Z,6.90
2023-03-27T12:34:02.347Z,7.00
2023-03-27T12:37:12.157Z,6.90
2023-03-27T12:40:28.091Z,7.10
2023-03-27T12:43:33.834Z,7.00
2023-03-27T12:46:40.856Z,7.00
2023-03-27T12:49:48.220Z,6.90
2023-03-27T12:52:54.175Z,7.10
2023-03-27T12:56:30.062Z,7.20
2023-03-27T12:59:36.592Z,7.30
2023-03-27T13:03:05.190Z,7.30
2023-03-27T13:06:25.146Z,7.60
2023-03-27T13:09:55.306Z,8.20
2023-03-27T13:13:18.492Z,8.40
2023-03-27T13:16:45.804Z,8.40
2023-03-27T13:19:58.131Z,8.10
2023-03-27T13:23:12.819Z,7.70
2023-03-27T13:26:29.710Z,7.70
2023-03-27T13:29:34.627Z,7.80
2023-03-27T13:32:39.893Z,7.70
2023-03-27T13:35:53.520Z,7.80
2023-03-27T13:39:24.880Z,7.90
2023-03-27T13:42:36.076Z,8.00
2023-03-27T13:45:47.419Z,7.90
2023-03-27T13:49:12.132Z,8.00
2023-03-27T13:52:31.558Z,8.20
2023-03-27T13:55:52.983Z,8.30
2023-03-27T13:59:21.908Z,8.40
2023-03-27T14:02:52.135Z,8.40
2023-03-27T14:06:32.121Z,8.40
2023-03-27T14:09:48.346Z,8.80
2023-03-27T14:13:01.338Z,8.90
2023-03-27T14:16:39.777Z,9.00
2023-03-27T14:20:13.886Z,9.00
2023-03-27T14:23:23.409Z,8.90
2023-03-27T14:26:29.667Z,8.60
2023-03-27T14:29:37.586Z,7.70
2023-03-27T14:32:42.956Z,7.50
2023-03-27T14:35:45.982Z,7.40
2023-03-27T14:38:48.869Z,7.40
2023-03-27T14:41:55.916Z,7.40
2023-03-27T14:45:20.256Z,7.40
2023-03-27T14:48:27.598Z,7.50
2023-03-27T14:51:37.232Z,8.10
2023-03-27T14:54:54.385Z,8.40
2023-03-27T14:58:02.201Z,8.60
2023-03-27T15:01:08.407Z,8.50
2023-03-27T15:04:14.927Z,8.40
2023-03-27T15:07:19.758Z,8.10
2023-03-27T15:10:26.184Z,7.80
2023-03-27T15:13:36.356Z,7.70
2023-03-27T15:16:39.926Z,7.70
2023-03-27T15:19:48.434Z,7.50
2023-03-27T15:22:55.803Z,7.50
2023-03-27T15:26:02.900Z,7.70
2023-03-27T15:29:13.745Z,7.90
2023-03-27T15:32:22.110Z,8.20
2023-03-27T15:35:30.893Z,8.30
2023-03-27T15:38:36.670Z,8.30
2023-03-27T15:41:43.945Z,8.20
2023-03-27T15:44:46.912Z,8.20
2023-03-27T15:48:01.638Z,8.40
2023-03-27T15:51:08.416Z,8.40
2023-03-27T15:54:26.136Z,8.40
2023-03-27T15:57:30.536Z,8.40
2023-03-27T16:00:33.621Z,8.20
2023-03-27T16:03:38.106Z,8.10
2023-03-27T16:06:45.708Z,8.30
2023-03-27T16:09:51.717Z,8.10
2023-03-27T16:13:00.720Z,8.00
2023-03-27T16:16:05.798Z,8.20
2023-03-27T16:19:13.522Z,8.40
2023-03-27T16:22:23.464Z,8.40
2023-03-27T16:25:26.352Z,8.10
2023-03-27T16:28:30.542Z,8.00
2023-03-27T16:31:33.558Z,7.90
2023-03-27T16:34:36.685Z,7.70
2023-03-27T16:37:41.226Z,7.20
2023-03-27T16:40:44.251Z,6.80
2023-03-27T16:43:48.776Z,6.30
2023-03-27T16:46:51.695Z,6.40
2023-03-27T16:50:10.231Z,6.60
2023-03-27T16:53:15.492Z,6.90
2023-03-27T16:56:18.328Z,7.10
2023-03-27T16:59:21.569Z,7.30
2023-03-27T17:02:26.215Z,7.30
2023-03-27T17:05:33.970Z,7.20
2023-03-27T17:08:38.690Z,6.90
2023-03-27T17:11:42.289Z,7.00
2023-03-27T17:14:45.288Z,7.10
2023-03-27T17:17:49.488Z,7.10
2023-03-27T17:20:52.814Z,7.00
2023-03-27T17:23:58.048Z,7.00
2023-03-27T17:27:00.869Z,7.00
2023-03-27T17:30:04.890Z,7.00
2023-03-27T17:33:07.949Z,7.00
2023-03-27T17:36:12.741Z,7.10
2023-03-27T17:39:17.114Z,7.20
2023-03-27T17:42:20.386Z,7.20
2023-03-27T17:45:24.608Z,6.80
2023-03-27T17:48:27.501Z,6.70
2023-03-27T17:51:30.345Z,6.60
2023-03-27T17:54:34.747Z,6.70
2023-03-27T17:57:37.944Z,6.70
2023-03-27T18:00:42.351Z,6.70
2023-03-27T18:03:46.112Z,6.70
2023-03-27T18:06:49.075Z,6.70
2023-03-27T18:09:53.488Z,6.70
2023-03-27T18:12:56.566Z,6.70
2023-03-27T18:16:00.090Z,6.70
2023-03-27T18:19:03.238Z,6.70
2023-03-27T18:22:06.104Z,6.60
2023-03-27T18:25:11.575Z,6.70
2023-03-27T18:28:14.916Z,6.60
2023-03-27T18:31:17.852Z,6.60
2023-03-27T18:34:21.014Z,6.60
2023-03-27T18:37:23.919Z,6.00
2023-03-27T18:40:28.343Z,5.90
2023-03-27T18:43:31.969Z,6.00
2023-03-27T18:46:34.863Z,6.00
2023-03-27T18:49:38.956Z,6.10
2023-03-27T18:52:42.280Z,6.20
2023-03-27T18:55:49.262Z,6.20
2023-03-27T18:58:52.245Z,6.30
2023-03-27T19:01:55.184Z,6.30
2023-03-27T19:04:58.078Z,6.40
2023-03-27T19:08:00.926Z,6.40
2023-03-27T19:11:05.460Z,6.40
2023-03-27T19:14:08.642Z,6.30
2023-03-27T19:17:14.831Z,6.30
2023-03-27T19:20:17.987Z,6.30
2023-03-27T19:23:20.847Z,6.20
2023-03-27T19:26:25.073Z,6.30
2023-03-27T19:29:28.204Z,6.30
2023-03-27T19:32:31.177Z,6.20
2023-03-27T19:35:34.136Z,6.00
2023-03-27T19:38:37.438Z,6.10
2023-03-27T19:41:44.282Z,6.10
2023-03-27T19:44:47.170Z,6.10
2023-03-27T19:47:50.103Z,6.00
2023-03-27T19:50:58.603Z,6.00
2023-03-27T19:54:01.886Z,5.90
2023-03-27T19:57:06.841Z,5.80
2023-03-27T20:00:12.868Z,5.80
2023-03-27T20:03:16.626Z,5.70
2023-03-27T20:06:20.496Z,5.90
2023-03-27T20:09:23.439Z,5.80
2023-03-27T20:12:27.725Z,5.80
2023-03-27T20:15:30.927Z,5.80
2023-03-27T20:18:34.176Z,5.80
2023-03-27T20:21:40.187Z,5.80
2023-03-27T20:24:43.014Z,5.60
2023-03-27T20:27:47.215Z,5.50
2023-03-27T20:30:50.214Z,5.30
2023-03-27T20:33:53.308Z,5.10
2023-03-27T20:36:58.940Z,5.10
2023-03-27T20:40:06.209Z,5.10
2023-03-27T20:43:10.858Z,5.10
2023-03-27T20:46:15.056Z,5.10
2023-03-27T20:49:37.605Z,5.00
2023-03-27T20:52:44.937Z,4.90
2023-03-27T20:55:59.238Z,5.00
2023-03-27T20:59:04.407Z,5.20
2023-03-27T21:02:08.138Z,5.10
2023-03-27T21:05:11.153Z,4.90
2023-03-27T21:08:14.171Z,5.00
2023-03-27T21:11:17.115Z,5.00
2023-03-27T21:14:21.585Z,5.00
2023-03-27T21:17:24.511Z,5.10
2023-03-27T21:20:28.068Z,5.10
2023-03-27T21:23:30.972Z,5.00
2023-03-27T21:26:34.079Z,5.00
2023-03-27T21:29:38.526Z,5.00
2023-03-27T21:32:41.668Z,5.00
2023-03-27T21:35:47.302Z,5.20
2023-03-27T21:38:50.514Z,5.20
2023-03-27T21:41:53.354Z,5.30
2023-03-27T21:44:57.605Z,5.20
2023-03-27T21:48:00.488Z,5.20
2023-03-27T21:51:04.856Z,5.10
2023-03-27T21:54:07.745Z,5.20
2023-03-27T21:57:10.708Z,5.20
2023-03-27T22:00:15.938Z,5.20
2023-03-27T22:03:18.818Z,5.10
2023-03-27T22:06:21.806Z,5.00
2023-03-27T22:09:24.981Z,4.90
2023-03-27T22:12:27.879Z,4.90
2023-03-27T22:15:32.182Z,4.90
2023-03-27T22:18:35.108Z,5.00
2023-03-27T22:21:38.111Z,4.90
2023-03-27T22:24:41.319Z,5.00
2023-03-27T22:27:44.349Z,5.00
2023-03-27T22:30:48.580Z,5.00
2023-03-27T22:33:51.746Z,5.00
2023-03-27T22:36:54.620Z,5.00
2023-03-27T22:39:57.492Z,4.90
2023-03-27T22:43:00.347Z,4.80
2023-03-27T22:46:07.224Z,4.90
2023-03-27T22:49:10.121Z,4.90
2023-03-27T22:52:12.963Z,4.80
2023-03-27T22:55:15.957Z,4.70
2023-03-27T22:58:19.473Z,4.60
2023-03-27T23:01:23.745Z,4.60
2023-03-27T23:04:26.673Z,4.70
2023-03-27T23:07:29.558Z,4.80
2023-03-27T23:10:32.477Z,4.70
2023-03-27T23:13:36.544Z,4.70
2023-03-27T23:16:40.867Z,4.50
2023-03-27T23:19:43.761Z,4.50
2023-03-27T23:22:46.643Z,4.60
2023-03-27T23:25:49.559Z,4.50
2023-03-27T23:28:52.416Z,4.40
2023-03-27T23:31:56.625Z,4.30
2023-03-27T23:34:59.515Z,4.30
2023-03-27T23:38:02.350Z,4.30
2023-03-27T23:41:06.824Z,4.30
2023-03-27T23:44:09.696Z,4.50
2023-03-27T23:47:13.918Z,4.60
2023-03-27T23:50:16.950Z,4.50
2023-03-27T23:53:19.957Z,4.60
2023-03-27T23:56:22.826Z,4.60
2023-03-27T23:59:25.687Z,4.80
